Arklow Wind — EIKZ — position and weather

sailwx.info

Track history (hours):
 
Tides and Currents Weather Stations Pressure Air Temp Water Temp Dewpoint Dewpoint Depression Visibility Wind Speed Wind Dir Waves Ship Positions

Arklow Wind

Last reported at 2017-Jul-18 22:15 UTC. Time now 2017-Dec-16 18:54 UTC.
Position N 51°29' W 003°59'.
Warning: this ship's position is months out of date.

Length 136 m; draft 5 m.

Type: Cargo ship. MMSI: 250506000.

Date/timePositionNaut miles runAvg speedWind from/ knotsBaromVisibWave heightAir tempDewpointWater temp
2017-Jul-18 22:15N 51°29' W 003°59'2 7.0
2017-Jul-18 22:00N 51°28' W 004°01'5 9.9
2017-Jul-18 21:28N 51°24' W 004°07'614.0
2017-Jul-18 21:00N 51°20' W 004°15'1013.7
2017-Jul-18 20:17N 51°13' W 004°26'413.3
2017-Jul-18 20:00N 51°10' W 004°30'612.9
2017-Jul-18 19:30N 51°06' W 004°37'612.6
2017-Jul-18 19:01N 51°01' W 004°44'612.6
2017-Jul-18 18:31N 50°56' W 004°51'612.6
2017-Jul-18 18:00N 50°52' W 004°58'612.5
2017-Jul-18 17:31N 50°48' W 005°06'612.3
2017-Jul-18 17:00N 50°44' W 005°13'612.3
2017-Jul-18 16:31N 50°40' W 005°20'612.2
2017-Jul-18 16:01N 50°36' W 005°27'612.2
2017-Jul-18 15:31N 50°31' W 005°34'612.2
2017-Jul-18 15:01N 50°27' W 005°41'1212.0
2017-Jul-18 14:00N 50°18' W 005°53'612.6
2017-Jul-18 13:30N 50°11' W 005°53'612.9
2017-Jul-18 13:00N 50°05' W 005°53'1610.7
2017-Jul-18 11:31N 49°57' W 005°31'013.8
2017-Jul-18 11:31N 49°57' W 005°31'713.1
2017-Jul-18 11:00N 49°55' W 005°21'712.8
2017-Jul-18 10:30N 49°55' W 005°11'613.0
2017-Jul-18 10:00N 49°56' W 005°01'613.0
2017-Jul-18 09:31N 49°57' W 004°51'713.2
2017-Jul-18 09:00N 49°58' W 004°41'713.3
2017-Jul-18 08:31N 49°59' W 004°31'713.5
2017-Jul-18 08:00N 50°01' W 004°20'713.8
2017-Jul-18 07:30N 50°02' W 004°10'714.1
2017-Jul-18 07:00N 50°04' W 003°59'714.4
2017-Jul-18 06:30N 50°06' W 003°48'714.4
2017-Jul-18 06:00N 50°07' W 003°37'714.3
2017-Jul-18 05:30N 50°09' W 003°26'713.8
2017-Jul-18 05:00N 50°10' W 003°16'713.3
2017-Jul-18 04:30N 50°12' W 003°06'612.8
2017-Jul-18 04:00N 50°13' W 002°56'612.5
2017-Jul-18 03:30N 50°14' W 002°46'612.2
2017-Jul-18 03:00N 50°16' W 002°37'611.9
2017-Jul-18 02:30N 50°17' W 002°28'611.6
2017-Jul-18 02:00N 50°18' W 002°19'711.4
2017-Jul-18 01:22N 50°19' W 002°08'511.5
2017-Jul-18 00:56N 50°20' W 002°00'511.7
2017-Jul-18 00:29N 50°22' W 001°52'612.1
2017-Jul-18 00:00N 50°23' W 001°43'612.6
2017-Jul-17 23:30N 50°24' W 001°34'613.1
2017-Jul-17 23:00N 50°26' W 001°24'713.5
2017-Jul-17 22:30N 50°27' W 001°14'714.0
2017-Jul-17 22:00N 50°29' W 001°03'714.2
2017-Jul-17 21:30N 50°30' W 000°52'714.6
2017-Jul-17 21:01N 50°31' W 000°41'714.9
2017-Jul-17 20:30N 50°31' W 000°29'714.8
2017-Jul-17 20:00N 50°31' W 000°17'714.5
2017-Jul-17 19:30N 50°32' W 000°06'714.3
2017-Jul-17 19:00N 50°34' E 000°05'714.3
2017-Jul-17 18:30N 50°36' E 000°16'714.1
2017-Jul-17 18:00N 50°37' E 000°27'713.4
2017-Jul-17 17:31N 50°40' E 000°36'713.3
2017-Jul-17 17:00N 50°44' E 000°45'713.3
2017-Jul-17 16:31N 50°48' E 000°54'713.3
2017-Jul-17 16:00N 50°51' E 001°02'713.3
2017-Jul-17 15:30N 50°56' E 001°10'713.7
2017-Jul-17 15:00N 51°00' E 001°19'714.9
2017-Jul-17 14:30N 51°04' E 001°29'815.6
2017-Jul-17 14:00N 51°07' E 001°40'612.6
2017-Jul-17 13:30N 51°03' E 001°47'613.1
2017-Jul-17 13:01N 51°02' E 001°57'714.6
2017-Jul-17 12:30N 51°03' E 002°08'3 4.7
2017-Jul-17 11:53N 51°00' E 002°11'0 0.0
2017-Jul-17 11:26N 51°00' E 002°11'0 0.0
2017-Jul-17 10:53N 51°00' E 002°11'0 0.0
2017-Jul-17 10:29N 51°00' E 002°11'0 0.0
2017-Jul-17 09:56N 51°00' E 002°11'0 0.0
2017-Jul-17 09:26N 51°00' E 002°11'0 0.0
2017-Jul-17 08:40N 51°00' E 002°11'0 0.0
2017-Jul-17 08:28N 51°00' E 002°11'0 0.0
2017-Jul-17 07:58N 51°00' E 002°11'0 0.0
2017-Jul-17 07:28N 51°00' E 002°11'0 0.0
2017-Jul-17 06:52N 51°00' E 002°11'0 0.0
2017-Jul-17 06:28N 51°00' E 002°11'0 0.0
2017-Jul-17 05:55N 51°00' E 002°11'0 0.0
2017-Jul-17 05:28N 51°00' E 002°11'0 0.0
2017-Jul-17 04:56N 51°00' E 002°11'0 0.0
2017-Jul-17 04:28N 51°00' E 002°11'0 0.0
2017-Jul-17 03:55N 51°00' E 002°11'0 0.0
2017-Jul-17 03:22N 51°00' E 002°11'0 0.0
2017-Jul-17 02:58N 51°00' E 002°11'0 0.0
2017-Jul-17 02:28N 51°00' E 002°11'0 0.0
2017-Jul-17 01:58N 51°00' E 002°11'0 0.0
2017-Jul-17 01:25N 51°00' E 002°11'0 0.0
2017-Jul-17 00:58N 51°00' E 002°11'0 0.0
2017-Jul-17 00:28N 51°00' E 002°11'0 0.0
2017-Jul-16 23:55N 51°00' E 002°11'0 0.0
2017-Jul-16 23:19N 51°00' E 002°11'0 0.0
2017-Jul-16 22:34N 51°00' E 002°11'0 0.0
2017-Jul-16 22:28N 51°00' E 002°11'0 0.0
2017-Jul-16 21:55N 51°00' E 002°11'0 0.0
2017-Jul-16 21:19N 51°00' E 002°11'0 0.0
2017-Jul-16 20:58N 51°00' E 002°11'0 0.0
2017-Jul-16 20:22N 51°00' E 002°11'0 0.0
2017-Jul-16 19:58N 51°00' E 002°11'0 0.0
2017-Jul-16 19:28N 51°00' E 002°11'0 0.0
2017-Jul-16 18:55N 51°00' E 002°11'0 0.0
2017-Jul-16 17:52N 51°00' E 002°11'0 0.0
2017-Jul-16 17:22N 51°00' E 002°11'0 0.0
2017-Jul-16 16:55N 51°00' E 002°11'0 0.0
2017-Jul-16 16:28N 51°00' E 002°11'0 0.0
2017-Jul-16 15:58N 51°00' E 002°11'0 0.0
2017-Jul-16 15:28N 51°00' E 002°11'0 0.0
2017-Jul-16 14:58N 51°00' E 002°11'0 0.0
2017-Jul-16 14:28N 51°00' E 002°11'0 0.0
2017-Jul-16 13:55N 51°00' E 002°11'0 0.0
2017-Jul-16 13:25N 51°00' E 002°11'0 0.0
2017-Jul-16 12:55N 51°00' E 002°11'0 0.0
2017-Jul-16 12:19N 51°00' E 002°11'0 0.0
2017-Jul-16 11:58N 51°00' E 002°11'0 0.0
2017-Jul-16 11:28N 51°00' E 002°11'0 0.0
2017-Jul-16 10:58N 51°00' E 002°11'0 0.0
2017-Jul-16 10:28N 51°00' E 002°11'0 0.0
2017-Jul-16 09:25N 51°00' E 002°11'0 0.0
2017-Jul-16 08:46N 51°00' E 002°11'0 0.0
2017-Jul-16 08:28N 51°00' E 002°11'0 0.0
2017-Jul-16 07:58N 51°00' E 002°11'0 0.0
2017-Jul-16 07:25N 51°00' E 002°11'0 0.0
2017-Jul-16 06:58N 51°00' E 002°11'0 0.0
2017-Jul-16 06:28N 51°00' E 002°11'0 0.0
2017-Jul-16 05:19N 51°00' E 002°11'0 0.0
2017-Jul-16 04:46N 51°00' E 002°11'0 0.0
2017-Jul-16 04:22N 51°00' E 002°11'0 0.0
2017-Jul-16 03:58N 51°00' E 002°11'0 0.0
2017-Jul-16 03:28N 51°00' E 002°11'0 0.0
2017-Jul-16 02:55N 51°00' E 002°11'0 0.0
2017-Jul-16 02:28N 51°00' E 002°11'0 0.0
2017-Jul-16 01:52N 51°00' E 002°11'0 0.0
2017-Jul-16 01:22N 51°00' E 002°11'0 0.0
2017-Jul-16 00:49N 51°00' E 002°11'0 0.0
2017-Jul-16 00:25N 51°00' E 002°11'0 0.0
2017-Jul-15 23:55N 51°00' E 002°11'0 0.0
2017-Jul-15 22:28N 51°00' E 002°11'0 0.0
2017-Jul-15 20:49N 51°00' E 002°11'0 0.0
2017-Jul-15 20:28N 51°00' E 002°11'0 0.0
2017-Jul-15 19:58N 51°00' E 002°11'0 0.0
2017-Jul-15 19:16N 51°00' E 002°11'0 0.0
2017-Jul-15 18:34N 51°00' E 002°11'0 0.0
2017-Jul-15 18:13N 51°00' E 002°11'0 0.0
2017-Jul-15 17:55N 51°00' E 002°11'0 0.0
2017-Jul-15 17:25N 51°00' E 002°11'0 0.0
2017-Jul-15 16:55N 51°00' E 002°11'0 0.0
2017-Jul-15 16:28N 51°00' E 002°11'0 0.0
2017-Jul-15 15:57N 51°00' E 002°11'0 0.0
2017-Jul-15 15:21N 51°00' E 002°11'0 0.0
2017-Jul-15 14:57N 51°00' E 002°11'0 0.0
2017-Jul-15 13:57N 51°00' E 002°11'0 0.0
2017-Jul-15 13:09N 51°00' E 002°11'0 0.0
2017-Jul-15 12:51N 51°00' E 002°11'0 0.0
2017-Jul-15 12:21N 51°00' E 002°11'0 0.0
2017-Jul-15 11:51N 51°00' E 002°11'0 0.0
2017-Jul-15 11:30N 51°00' E 002°11'0 0.0
2017-Jul-15 10:48N 51°00' E 002°11'0 0.0
2017-Jul-15 10:06N 51°00' E 002°11'0 0.0
2017-Jul-15 09:51N 51°00' E 002°11'0 0.0
2017-Jul-15 09:30N 51°00' E 002°11'0 0.0
2017-Jul-15 08:57N 51°00' E 002°11'0 0.0
2017-Jul-15 08:30N 51°00' E 002°11'0 0.0
2017-Jul-15 07:57N 51°00' E 002°11'0 0.0
2017-Jul-15 07:30N 51°00' E 002°11'0 0.0
2017-Jul-15 07:00N 51°00' E 002°11'0 0.0
2017-Jul-15 06:30N 51°00' E 002°11'0 0.0
2017-Jul-15 06:00N 51°00' E 002°11'0 0.0
2017-Jul-15 05:30N 51°00' E 002°11'0 0.0
2017-Jul-15 05:00N 51°00' E 002°11'0 0.0
2017-Jul-15 04:30N 51°00' E 002°11'0 0.0
2017-Jul-15 03:57N 51°00' E 002°11'0 0.0
2017-Jul-15 03:27N 51°00' E 002°11'0 0.0
2017-Jul-15 03:00N 51°00' E 002°11'0 0.0
2017-Jul-15 02:30N 51°00' E 002°11'0 0.0
2017-Jul-15 02:00N 51°00' E 002°11'0 0.0
2017-Jul-15 01:27N 51°00' E 002°11'0 0.0
2017-Jul-15 00:48N 51°00' E 002°11'0 0.0
2017-Jul-15 00:30N 51°00' E 002°11'0 0.0
2017-Jul-15 00:00N 51°00' E 002°11'0 0.0
2017-Jul-14 23:30N 51°00' E 002°11'0 0.0
2017-Jul-14 22:45N 51°00' E 002°11'0 0.0
2017-Jul-14 22:30N 51°00' E 002°11'0 0.0
2017-Jul-14 21:51N 51°00' E 002°11'0 0.0
2017-Jul-14 21:15N 51°00' E 002°11'0 0.0
2017-Jul-14 21:00N 51°00' E 002°11'0 0.0
2017-Jul-14 19:33N 51°00' E 002°11'0 0.0
2017-Jul-14 19:27N 51°00' E 002°11'0 0.0
2017-Jul-14 18:48N 51°00' E 002°11'0 0.0
2017-Jul-14 18:30N 51°00' E 002°11'0 0.0
2017-Jul-14 17:45N 51°00' E 002°11'0 0.0
2017-Jul-14 15:45N 51°00' E 002°11'0 0.0
2017-Jul-14 15:09N 51°00' E 002°11'0 0.0
2017-Jul-14 15:00N 51°00' E 002°11'0 0.0
2017-Jul-14 14:27N 51°00' E 002°11'0 0.0
2017-Jul-14 13:18N 51°00' E 002°11'0 0.0
2017-Jul-14 12:24N 51°00' E 002°11'0 0.0
2017-Jul-14 12:00N 51°00' E 002°11'0 0.0
2017-Jul-14 11:27N 51°00' E 002°11'0 0.0
2017-Jul-14 10:00N 51°00' E 002°11'0 0.0
2017-Jul-14 09:06N 51°00' E 002°11'0 0.0
2017-Jul-14 09:00N 51°00' E 002°11'0 0.0
2017-Jul-14 06:45N 51°00' E 002°11'0 0.0
2017-Jul-14 06:27N 51°00' E 002°11'0 0.0
2017-Jul-14 05:21N 51°00' E 002°11'0 0.0
2017-Jul-14 04:57N 51°00' E 002°11'0 0.0
2017-Jul-14 04:30N 51°00' E 002°11'0 0.0
2017-Jul-14 04:00N 51°00' E 002°11'0 0.0
2017-Jul-14 03:30N 51°00' E 002°11'0 0.0
2017-Jul-14 02:47N 51°00' E 002°11'0 0.0
2017-Jul-14 02:29N 51°00' E 002°11'0 0.0
2017-Jul-14 01:48N 51°00' E 002°11'0 0.0
2017-Jul-14 01:29N 51°00' E 002°11'0 0.0
2017-Jul-14 00:53N 51°00' E 002°11'0 0.0
2017-Jul-14 00:23N 51°00' E 002°11'0 0.0
2017-Jul-13 23:59N 51°00' E 002°11'0 0.0
2017-Jul-13 23:26N 51°00' E 002°11'0 0.0
2017-Jul-13 22:56N 51°00' E 002°11'0 0.0
2017-Jul-13 22:29N 51°00' E 002°11'0 0.0
2017-Jul-13 21:59N 51°00' E 002°11'0 0.0
2017-Jul-13 21:29N 51°00' E 002°11'0 0.0
2017-Jul-13 20:59N 51°00' E 002°11'0 0.0
2017-Jul-13 20:26N 51°00' E 002°11'0 0.0
2017-Jul-13 19:59N 51°00' E 002°11'0 0.0
2017-Jul-13 19:05N 51°00' E 002°11'0 0.0
2017-Jul-13 18:44N 51°00' E 002°11'0 0.0
2017-Jul-13 18:26N 51°00' E 002°11'0 0.0
2017-Jul-13 17:59N 51°00' E 002°11'0 0.0
2017-Jul-13 17:29N 51°00' E 002°11'0 0.0
2017-Jul-13 16:59N 51°00' E 002°11'0 0.0
2017-Jul-13 16:26N 51°00' E 002°11'0 0.0
2017-Jul-13 15:59N 51°00' E 002°11'0 0.0
2017-Jul-13 15:29N 51°00' E 002°11'0 0.0
2017-Jul-13 14:53N 51°00' E 002°11'0 0.0
2017-Jul-13 12:23N 51°00' E 002°11'0 0.0
2017-Jul-13 11:59N 51°00' E 002°11'0 0.0
2017-Jul-13 11:20N 51°00' E 002°11'0 0.0
2017-Jul-13 10:59N 51°00' E 002°11'0 0.0
2017-Jul-13 10:26N 51°00' E 002°11'0 0.0
2017-Jul-13 09:59N 51°00' E 002°11'0 0.0
2017-Jul-13 09:23N 51°00' E 002°11'0 0.0
2017-Jul-13 08:23N 51°00' E 002°11'0 0.0
2017-Jul-13 07:44N 51°00' E 002°11'0 0.0
2017-Jul-13 07:26N 51°00' E 002°11'0 0.0
2017-Jul-13 06:53N 51°00' E 002°11'0 0.0
2017-Jul-13 06:29N 51°00' E 002°11'0 0.0
2017-Jul-13 05:59N 51°00' E 002°11'0 0.0
2017-Jul-13 05:23N 51°00' E 002°11'0 0.0
2017-Jul-13 04:44N 51°00' E 002°11'0 0.0
2017-Jul-13 04:29N 51°00' E 002°11'0 0.0
2017-Jul-13 03:47N 51°00' E 002°11'0 0.0
2017-Jul-13 03:26N 51°00' E 002°11'0 0.0
2017-Jul-13 02:53N 51°00' E 002°11'0 0.0
2017-Jul-13 02:20N 51°00' E 002°11'0 0.0
2017-Jul-13 01:35N 51°00' E 002°11'0 0.0
2017-Jul-13 01:23N 51°00' E 002°11'0 0.0
2017-Jul-13 00:59N 51°00' E 002°11'0 0.0
2017-Jul-13 00:29N 51°00' E 002°11'0 0.0
2017-Jul-12 23:44N 51°00' E 002°11'0 0.0
2017-Jul-12 23:29N 51°00' E 002°11'0 0.0
2017-Jul-12 22:59N 51°00' E 002°11'0 0.0
2017-Jul-12 22:23N 51°00' E 002°11'0 0.0
2017-Jul-12 21:56N 51°00' E 002°11'0 0.0
2017-Jul-12 21:17N 51°00' E 002°11'0 0.0
2017-Jul-12 20:23N 51°00' E 002°11'0 0.0
2017-Jul-12 19:59N 51°00' E 002°11'0 0.0
2017-Jul-12 19:14N 51°00' E 002°11'0 0.0
2017-Jul-12 18:47N 51°00' E 002°11'0 0.0
2017-Jul-12 17:23N 51°00' E 002°11'0 0.0
2017-Jul-12 13:05N 51°00' E 002°11'0 0.0
2017-Jul-12 12:41N 51°00' E 002°11'0 0.0
2017-Jul-12 12:29N 51°00' E 002°11'0 0.9
2017-Jul-12 11:57N 51°01' E 002°11'5 8.0
2017-Jul-12 11:19N 51°03' E 002°03'5 9.7
2017-Jul-12 10:50N 51°02' E 001°56'3 6.6
2017-Jul-12 10:24N 51°02' E 001°51'3 6.0
2017-Jul-12 09:58N 51°02' E 001°47'4 7.6
2017-Jul-12 09:30N 51°00' E 001°42'4 8.4
2017-Jul-12 09:00N 50°58' E 001°37'4 8.3
2017-Jul-12 08:30N 50°55' E 001°32'70 9.4
2017-Jul-12 01:00N 50°21' W 000°05'611.3
2017-Jul-12 00:29N 50°22' W 000°14'3712.8
2017-Jul-11 21:38N 50°28' W 001°11'12211.2
2017-Jul-11 10:44N 50°01' W 004°17'511.4
2017-Jul-11 10:17N 50°00' W 004°25'411.4
2017-Jul-11 09:56N 49°59' W 004°31'62 8.7
2017-Jul-11 02:45N 50°20' W 006°02'13012.0
2017-Jul-10 15:54N 51°08' W 009°14'712.8
2017-Jul-10 15:19N 51°10' W 009°25'412.5
2017-Jul-10 15:00N 51°12' W 009°31'612.3
2017-Jul-10 14:30N 51°14' W 009°40'612.1
2017-Jul-10 14:00N 51°17' W 009°49'611.6
2017-Jul-10 13:30N 51°20' W 009°56'611.5
2017-Jul-10 13:00N 51°23' W 010°04'611.3
2017-Jul-10 12:30N 51°26' W 010°11'611.2
2017-Jul-10 11:59N 51°30' W 010°19'510.7
2017-Jul-10 11:30N 51°34' W 010°25'54 8.8
2017-Jul-10 05:24N 52°26' W 010°02'  
Track history (hours):
 
Tides and Currents Weather Stations Pressure Air Temp Water Temp Dewpoint Dewpoint Depression Visibility Wind Speed Wind Dir Waves Ship Positions

Arklow Wind

Last reported at 2017-Jul-18 22:15 UTC. Time now 2017-Dec-16 18:54 UTC.
Position N 51°29' W 003°59'.
Warning: this ship's position is months out of date.

Length 136 m; draft 5 m.

Type: Cargo ship. MMSI: 250506000.

Date/timePositionNaut miles runAvg speedWind from/ knotsBaromVisibWave heightAir tempDewpointWater temp
2017-Jul-18 22:15N 51°29' W 003°59'2 7.0
2017-Jul-18 22:00N 51°28' W 004°01'5 9.9
2017-Jul-18 21:28N 51°24' W 004°07'614.0
2017-Jul-18 21:00N 51°20' W 004°15'1013.7
2017-Jul-18 20:17N 51°13' W 004°26'413.3
2017-Jul-18 20:00N 51°10' W 004°30'612.9
2017-Jul-18 19:30N 51°06' W 004°37'612.6
2017-Jul-18 19:01N 51°01' W 004°44'612.6
2017-Jul-18 18:31N 50°56' W 004°51'612.6
2017-Jul-18 18:00N 50°52' W 004°58'612.5
2017-Jul-18 17:31N 50°48' W 005°06'612.3
2017-Jul-18 17:00N 50°44' W 005°13'612.3
2017-Jul-18 16:31N 50°40' W 005°20'612.2
2017-Jul-18 16:01N 50°36' W 005°27'612.2
2017-Jul-18 15:31N 50°31' W 005°34'612.2
2017-Jul-18 15:01N 50°27' W 005°41'1212.0
2017-Jul-18 14:00N 50°18' W 005°53'612.6
2017-Jul-18 13:30N 50°11' W 005°53'612.9
2017-Jul-18 13:00N 50°05' W 005°53'1610.7
2017-Jul-18 11:31N 49°57' W 005°31'013.8
2017-Jul-18 11:31N 49°57' W 005°31'713.1
2017-Jul-18 11:00N 49°55' W 005°21'712.8
2017-Jul-18 10:30N 49°55' W 005°11'613.0
2017-Jul-18 10:00N 49°56' W 005°01'613.0
2017-Jul-18 09:31N 49°57' W 004°51'713.2
2017-Jul-18 09:00N 49°58' W 004°41'713.3
2017-Jul-18 08:31N 49°59' W 004°31'713.5
2017-Jul-18 08:00N 50°01' W 004°20'713.8
2017-Jul-18 07:30N 50°02' W 004°10'714.1
2017-Jul-18 07:00N 50°04' W 003°59'714.4
2017-Jul-18 06:30N 50°06' W 003°48'714.4
2017-Jul-18 06:00N 50°07' W 003°37'714.3
2017-Jul-18 05:30N 50°09' W 003°26'713.8
2017-Jul-18 05:00N 50°10' W 003°16'713.3
2017-Jul-18 04:30N 50°12' W 003°06'612.8
2017-Jul-18 04:00N 50°13' W 002°56'612.5
2017-Jul-18 03:30N 50°14' W 002°46'612.2
2017-Jul-18 03:00N 50°16' W 002°37'611.9
2017-Jul-18 02:30N 50°17' W 002°28'611.6
2017-Jul-18 02:00N 50°18' W 002°19'711.4
2017-Jul-18 01:22N 50°19' W 002°08'511.5
2017-Jul-18 00:56N 50°20' W 002°00'511.7
2017-Jul-18 00:29N 50°22' W 001°52'612.1
2017-Jul-18 00:00N 50°23' W 001°43'612.6
2017-Jul-17 23:30N 50°24' W 001°34'613.1
2017-Jul-17 23:00N 50°26' W 001°24'713.5
2017-Jul-17 22:30N 50°27' W 001°14'714.0
2017-Jul-17 22:00N 50°29' W 001°03'714.2
2017-Jul-17 21:30N 50°30' W 000°52'714.6
2017-Jul-17 21:01N 50°31' W 000°41'714.9
2017-Jul-17 20:30N 50°31' W 000°29'714.8
2017-Jul-17 20:00N 50°31' W 000°17'714.5
2017-Jul-17 19:30N 50°32' W 000°06'714.3
2017-Jul-17 19:00N 50°34' E 000°05'714.3
2017-Jul-17 18:30N 50°36' E 000°16'714.1
2017-Jul-17 18:00N 50°37' E 000°27'713.4
2017-Jul-17 17:31N 50°40' E 000°36'713.3
2017-Jul-17 17:00N 50°44' E 000°45'713.3
2017-Jul-17 16:31N 50°48' E 000°54'713.3
2017-Jul-17 16:00N 50°51' E 001°02'713.3
2017-Jul-17 15:30N 50°56' E 001°10'713.7
2017-Jul-17 15:00N 51°00' E 001°19'714.9
2017-Jul-17 14:30N 51°04' E 001°29'815.6
2017-Jul-17 14:00N 51°07' E 001°40'612.6
2017-Jul-17 13:30N 51°03' E 001°47'613.1
2017-Jul-17 13:01N 51°02' E 001°57'714.6
2017-Jul-17 12:30N 51°03' E 002°08'3 4.7
2017-Jul-17 11:53N 51°00' E 002°11'0 0.0
2017-Jul-17 11:26N 51°00' E 002°11'0 0.0
2017-Jul-17 10:53N 51°00' E 002°11'0 0.0
2017-Jul-17 10:29N 51°00' E 002°11'0 0.0
2017-Jul-17 09:56N 51°00' E 002°11'0 0.0
2017-Jul-17 09:26N 51°00' E 002°11'0 0.0
2017-Jul-17 08:40N 51°00' E 002°11'0 0.0
2017-Jul-17 08:28N 51°00' E 002°11'0 0.0
2017-Jul-17 07:58N 51°00' E 002°11'0 0.0
2017-Jul-17 07:28N 51°00' E 002°11'0 0.0
2017-Jul-17 06:52N 51°00' E 002°11'0 0.0
2017-Jul-17 06:28N 51°00' E 002°11'0 0.0
2017-Jul-17 05:55N 51°00' E 002°11'0 0.0
2017-Jul-17 05:28N 51°00' E 002°11'0 0.0
2017-Jul-17 04:56N 51°00' E 002°11'0 0.0
2017-Jul-17 04:28N 51°00' E 002°11'0 0.0
2017-Jul-17 03:55N 51°00' E 002°11'0 0.0
2017-Jul-17 03:22N 51°00' E 002°11'0 0.0
2017-Jul-17 02:58N 51°00' E 002°11'0 0.0
2017-Jul-17 02:28N 51°00' E 002°11'0 0.0
2017-Jul-17 01:58N 51°00' E 002°11'0 0.0
2017-Jul-17 01:25N 51°00' E 002°11'0 0.0
2017-Jul-17 00:58N 51°00' E 002°11'0 0.0
2017-Jul-17 00:28N 51°00' E 002°11'0 0.0
2017-Jul-16 23:55N 51°00' E 002°11'0 0.0
2017-Jul-16 23:19N 51°00' E 002°11'0 0.0
2017-Jul-16 22:34N 51°00' E 002°11'0 0.0
2017-Jul-16 22:28N 51°00' E 002°11'0 0.0
2017-Jul-16 21:55N 51°00' E 002°11'0 0.0
2017-Jul-16 21:19N 51°00' E 002°11'0 0.0
2017-Jul-16 20:58N 51°00' E 002°11'0 0.0
2017-Jul-16 20:22N 51°00' E 002°11'0 0.0
2017-Jul-16 19:58N 51°00' E 002°11'0 0.0
2017-Jul-16 19:28N 51°00' E 002°11'0 0.0
2017-Jul-16 18:55N 51°00' E 002°11'0 0.0
2017-Jul-16 17:52N 51°00' E 002°11'0 0.0
2017-Jul-16 17:22N 51°00' E 002°11'0 0.0
2017-Jul-16 16:55N 51°00' E 002°11'0 0.0
2017-Jul-16 16:28N 51°00' E 002°11'0 0.0
2017-Jul-16 15:58N 51°00' E 002°11'0 0.0
2017-Jul-16 15:28N 51°00' E 002°11'0 0.0
2017-Jul-16 14:58N 51°00' E 002°11'0 0.0
2017-Jul-16 14:28N 51°00' E 002°11'0 0.0
2017-Jul-16 13:55N 51°00' E 002°11'0 0.0
2017-Jul-16 13:25N 51°00' E 002°11'0 0.0
2017-Jul-16 12:55N 51°00' E 002°11'0 0.0
2017-Jul-16 12:19N 51°00' E 002°11'0 0.0
2017-Jul-16 11:58N 51°00' E 002°11'0 0.0
2017-Jul-16 11:28N 51°00' E 002°11'0 0.0
2017-Jul-16 10:58N 51°00' E 002°11'0 0.0
2017-Jul-16 10:28N 51°00' E 002°11'0 0.0
2017-Jul-16 09:25N 51°00' E 002°11'0 0.0
2017-Jul-16 08:46N 51°00' E 002°11'0 0.0
2017-Jul-16 08:28N 51°00' E 002°11'0 0.0
2017-Jul-16 07:58N 51°00' E 002°11'0 0.0
2017-Jul-16 07:25N 51°00' E 002°11'0 0.0
2017-Jul-16 06:58N 51°00' E 002°11'0 0.0
2017-Jul-16 06:28N 51°00' E 002°11'0 0.0
2017-Jul-16 05:19N 51°00' E 002°11'0 0.0
2017-Jul-16 04:46N 51°00' E 002°11'0 0.0
2017-Jul-16 04:22N 51°00' E 002°11'0 0.0
2017-Jul-16 03:58N 51°00' E 002°11'0 0.0
2017-Jul-16 03:28N 51°00' E 002°11'0 0.0
2017-Jul-16 02:55N 51°00' E 002°11'0 0.0
2017-Jul-16 02:28N 51°00' E 002°11'0 0.0
2017-Jul-16 01:52N 51°00' E 002°11'0 0.0
2017-Jul-16 01:22N 51°00' E 002°11'0 0.0
2017-Jul-16 00:49N 51°00' E 002°11'0 0.0
2017-Jul-16 00:25N 51°00' E 002°11'0 0.0
2017-Jul-15 23:55N 51°00' E 002°11'0 0.0
2017-Jul-15 22:28N 51°00' E 002°11'0 0.0
2017-Jul-15 20:49N 51°00' E 002°11'0 0.0
2017-Jul-15 20:28N 51°00' E 002°11'0 0.0
2017-Jul-15 19:58N 51°00' E 002°11'0 0.0
2017-Jul-15 19:16N 51°00' E 002°11'0 0.0
2017-Jul-15 18:34N 51°00' E 002°11'0 0.0
2017-Jul-15 18:13N 51°00' E 002°11'0 0.0
2017-Jul-15 17:55N 51°00' E 002°11'0 0.0
2017-Jul-15 17:25N 51°00' E 002°11'0 0.0
2017-Jul-15 16:55N 51°00' E 002°11'0 0.0
2017-Jul-15 16:28N 51°00' E 002°11'0 0.0
2017-Jul-15 15:57N 51°00' E 002°11'0 0.0
2017-Jul-15 15:21N 51°00' E 002°11'0 0.0
2017-Jul-15 14:57N 51°00' E 002°11'0 0.0
2017-Jul-15 13:57N 51°00' E 002°11'0 0.0
2017-Jul-15 13:09N 51°00' E 002°11'0 0.0
2017-Jul-15 12:51N 51°00' E 002°11'0 0.0
2017-Jul-15 12:21N 51°00' E 002°11'0 0.0
2017-Jul-15 11:51N 51°00' E 002°11'0 0.0
2017-Jul-15 11:30N 51°00' E 002°11'0 0.0
2017-Jul-15 10:48N 51°00' E 002°11'0 0.0
2017-Jul-15 10:06N 51°00' E 002°11'0 0.0
2017-Jul-15 09:51N 51°00' E 002°11'0 0.0
2017-Jul-15 09:30N 51°00' E 002°11'0 0.0
2017-Jul-15 08:57N 51°00' E 002°11'0 0.0
2017-Jul-15 08:30N 51°00' E 002°11'0 0.0
2017-Jul-15 07:57N 51°00' E 002°11'0 0.0
2017-Jul-15 07:30N 51°00' E 002°11'0 0.0
2017-Jul-15 07:00N 51°00' E 002°11'0 0.0
2017-Jul-15 06:30N 51°00' E 002°11'0 0.0
2017-Jul-15 06:00N 51°00' E 002°11'0 0.0
2017-Jul-15 05:30N 51°00' E 002°11'0 0.0
2017-Jul-15 05:00N 51°00' E 002°11'0 0.0
2017-Jul-15 04:30N 51°00' E 002°11'0 0.0
2017-Jul-15 03:57N 51°00' E 002°11'0 0.0
2017-Jul-15 03:27N 51°00' E 002°11'0 0.0
2017-Jul-15 03:00N 51°00' E 002°11'0 0.0
2017-Jul-15 02:30N 51°00' E 002°11'0 0.0
2017-Jul-15 02:00N 51°00' E 002°11'0 0.0
2017-Jul-15 01:27N 51°00' E 002°11'0 0.0
2017-Jul-15 00:48N 51°00' E 002°11'0 0.0
2017-Jul-15 00:30N 51°00' E 002°11'0 0.0
2017-Jul-15 00:00N 51°00' E 002°11'0 0.0
2017-Jul-14 23:30N 51°00' E 002°11'0 0.0
2017-Jul-14 22:45N 51°00' E 002°11'0 0.0
2017-Jul-14 22:30N 51°00' E 002°11'0 0.0
2017-Jul-14 21:51N 51°00' E 002°11'0 0.0
2017-Jul-14 21:15N 51°00' E 002°11'0 0.0
2017-Jul-14 21:00N 51°00' E 002°11'0 0.0
2017-Jul-14 19:33N 51°00' E 002°11'0 0.0
2017-Jul-14 19:27N 51°00' E 002°11'0 0.0
2017-Jul-14 18:48N 51°00' E 002°11'0 0.0
2017-Jul-14 18:30N 51°00' E 002°11'0 0.0
2017-Jul-14 17:45N 51°00' E 002°11'0 0.0
2017-Jul-14 15:45N 51°00' E 002°11'0 0.0
2017-Jul-14 15:09N 51°00' E 002°11'0 0.0
2017-Jul-14 15:00N 51°00' E 002°11'0 0.0
2017-Jul-14 14:27N 51°00' E 002°11'0 0.0
2017-Jul-14 13:18N 51°00' E 002°11'0 0.0
2017-Jul-14 12:24N 51°00' E 002°11'0 0.0
2017-Jul-14 12:00N 51°00' E 002°11'0 0.0
2017-Jul-14 11:27N 51°00' E 002°11'0 0.0
2017-Jul-14 10:00N 51°00' E 002°11'0 0.0
2017-Jul-14 09:06N 51°00' E 002°11'0 0.0
2017-Jul-14 09:00N 51°00' E 002°11'0 0.0
2017-Jul-14 06:45N 51°00' E 002°11'0 0.0
2017-Jul-14 06:27N 51°00' E 002°11'0 0.0
2017-Jul-14 05:21N 51°00' E 002°11'0 0.0
2017-Jul-14 04:57N 51°00' E 002°11'0 0.0
2017-Jul-14 04:30N 51°00' E 002°11'0 0.0
2017-Jul-14 04:00N 51°00' E 002°11'0 0.0
2017-Jul-14 03:30N 51°00' E 002°11'0 0.0
2017-Jul-14 02:47N 51°00' E 002°11'0 0.0
2017-Jul-14 02:29N 51°00' E 002°11'0 0.0
2017-Jul-14 01:48N 51°00' E 002°11'0 0.0
2017-Jul-14 01:29N 51°00' E 002°11'0 0.0
2017-Jul-14 00:53N 51°00' E 002°11'0 0.0
2017-Jul-14 00:23N 51°00' E 002°11'0 0.0
2017-Jul-13 23:59N 51°00' E 002°11'0 0.0
2017-Jul-13 23:26N 51°00' E 002°11'0 0.0
2017-Jul-13 22:56N 51°00' E 002°11'0 0.0
2017-Jul-13 22:29N 51°00' E 002°11'0 0.0
2017-Jul-13 21:59N 51°00' E 002°11'0 0.0
2017-Jul-13 21:29N 51°00' E 002°11'0 0.0
2017-Jul-13 20:59N 51°00' E 002°11'0 0.0
2017-Jul-13 20:26N 51°00' E 002°11'0 0.0
2017-Jul-13 19:59N 51°00' E 002°11'0 0.0
2017-Jul-13 19:05N 51°00' E 002°11'0 0.0
2017-Jul-13 18:44N 51°00' E 002°11'0 0.0
2017-Jul-13 18:26N 51°00' E 002°11'0 0.0
2017-Jul-13 17:59N 51°00' E 002°11'0 0.0
2017-Jul-13 17:29N 51°00' E 002°11'0 0.0
2017-Jul-13 16:59N 51°00' E 002°11'0 0.0
2017-Jul-13 16:26N 51°00' E 002°11'0 0.0
2017-Jul-13 15:59N 51°00' E 002°11'0 0.0
2017-Jul-13 15:29N 51°00' E 002°11'0 0.0
2017-Jul-13 14:53N 51°00' E 002°11'0 0.0
2017-Jul-13 12:23N 51°00' E 002°11'0 0.0
2017-Jul-13 11:59N 51°00' E 002°11'0 0.0
2017-Jul-13 11:20N 51°00' E 002°11'0 0.0
2017-Jul-13 10:59N 51°00' E 002°11'0 0.0
2017-Jul-13 10:26N 51°00' E 002°11'0 0.0
2017-Jul-13 09:59N 51°00' E 002°11'0 0.0
2017-Jul-13 09:23N 51°00' E 002°11'0 0.0
2017-Jul-13 08:23N 51°00' E 002°11'0 0.0
2017-Jul-13 07:44N 51°00' E 002°11'0 0.0
2017-Jul-13 07:26N 51°00' E 002°11'0 0.0
2017-Jul-13 06:53N 51°00' E 002°11'0 0.0
2017-Jul-13 06:29N 51°00' E 002°11'0 0.0
2017-Jul-13 05:59N 51°00' E 002°11'0 0.0
2017-Jul-13 05:23N 51°00' E 002°11'0 0.0
2017-Jul-13 04:44N 51°00' E 002°11'0 0.0
2017-Jul-13 04:29N 51°00' E 002°11'0 0.0
2017-Jul-13 03:47N 51°00' E 002°11'0 0.0
2017-Jul-13 03:26N 51°00' E 002°11'0 0.0
2017-Jul-13 02:53N 51°00' E 002°11'0 0.0
2017-Jul-13 02:20N 51°00' E 002°11'0 0.0
2017-Jul-13 01:35N 51°00' E 002°11'0 0.0
2017-Jul-13 01:23N 51°00' E 002°11'0 0.0
2017-Jul-13 00:59N 51°00' E 002°11'0 0.0
2017-Jul-13 00:29N 51°00' E 002°11'0 0.0
2017-Jul-12 23:44N 51°00' E 002°11'0 0.0
2017-Jul-12 23:29N 51°00' E 002°11'0 0.0
2017-Jul-12 22:59N 51°00' E 002°11'0 0.0
2017-Jul-12 22:23N 51°00' E 002°11'0 0.0
2017-Jul-12 21:56N 51°00' E 002°11'0 0.0
2017-Jul-12 21:17N 51°00' E 002°11'0 0.0
2017-Jul-12 20:23N 51°00' E 002°11'0 0.0
2017-Jul-12 19:59N 51°00' E 002°11'0 0.0
2017-Jul-12 19:14N 51°00' E 002°11'0 0.0
2017-Jul-12 18:47N 51°00' E 002°11'0 0.0
2017-Jul-12 17:23N 51°00' E 002°11'0 0.0
2017-Jul-12 13:05N 51°00' E 002°11'0 0.0
2017-Jul-12 12:41N 51°00' E 002°11'0 0.0
2017-Jul-12 12:29N 51°00' E 002°11'0 0.9
2017-Jul-12 11:57N 51°01' E 002°11'5 8.0
2017-Jul-12 11:19N 51°03' E 002°03'5 9.7
2017-Jul-12 10:50N 51°02' E 001°56'3 6.6
2017-Jul-12 10:24N 51°02' E 001°51'3 6.0
2017-Jul-12 09:58N 51°02' E 001°47'4 7.6
2017-Jul-12 09:30N 51°00' E 001°42'4 8.4
2017-Jul-12 09:00N 50°58' E 001°37'4 8.3
2017-Jul-12 08:30N 50°55' E 001°32'70 9.4
2017-Jul-12 01:00N 50°21' W 000°05'611.3
2017-Jul-12 00:29N 50°22' W 000°14'3712.8
2017-Jul-11 21:38N 50°28' W 001°11'12211.2
2017-Jul-11 10:44N 50°01' W 004°17'511.4
2017-Jul-11 10:17N 50°00' W 004°25'411.4
2017-Jul-11 09:56N 49°59' W 004°31'62 8.7
2017-Jul-11 02:45N 50°20' W 006°02'13012.0
2017-Jul-10 15:54N 51°08' W 009°14'712.8
2017-Jul-10 15:19N 51°10' W 009°25'412.5
2017-Jul-10 15:00N 51°12' W 009°31'612.3
2017-Jul-10 14:30N 51°14' W 009°40'612.1
2017-Jul-10 14:00N 51°17' W 009°49'611.6
2017-Jul-10 13:30N 51°20' W 009°56'611.5
2017-Jul-10 13:00N 51°23' W 010°04'611.3
2017-Jul-10 12:30N 51°26' W 010°11'611.2
2017-Jul-10 11:59N 51°30' W 010°19'510.7
2017-Jul-10 11:30N 51°34' W 010°25'54 8.8
2017-Jul-10 05:24N 52°26' W 010°02'  

Dump ship's entire track history